Time;durP1;ratioP1;P1;durP2;ratioP2;P2;SDS_P1;SDS_P2;PMS_P1;PMS_P2;Temp;Humidity;BMP_temperature;BMP_pressure;BME280_temperature;BME280_humidity;BME280_pressure;Samples;Min_cycle;Max_cycle;Signal;HPM_P1;HPM_P2
2020/12/05 00:01:43;;;;;;;41.33;25.80;;;4.30;99.90;;;;;;5013618;28;20176;-66
2020/12/05 00:04:08;;;;;;;38.73;25.27;;;4.20;99.90;;;;;;5013097;28;20184;-67
2020/12/05 00:06:34;;;;;;;39.93;24.87;;;4.20;99.90;;;;;;5013674;28;20183;-67
2020/12/05 00:08:59;;;;;;;43.57;25.70;;;4.30;99.90;;;;;;5013142;28;20291;-63
2020/12/05 00:11:26;;;;;;;43.90;25.67;;;4.30;99.90;;;;;;5013400;28;20185;-64
2020/12/05 00:13:52;;;;;;;45.57;26.27;;;4.30;99.90;;;;;;5013122;28;20232;-64
2020/12/05 00:16:17;;;;;;;44.80;27.93;;;4.30;99.90;;;;;;5013178;28;20566;-66
2020/12/05 00:18:43;;;;;;;44.67;26.77;;;4.30;99.90;;;;;;5013268;28;20533;-65
2020/12/05 00:21:08;;;;;;;45.77;27.47;;;4.30;99.90;;;;;;5013058;28;20172;-66
2020/12/05 00:23:34;;;;;;;47.07;28.23;;;4.30;99.90;;;;;;5013215;28;20174;-67
2020/12/05 00:26:00;;;;;;;44.97;27.13;;;4.40;99.90;;;;;;5013007;28;20532;-67
2020/12/05 00:28:25;;;;;;;44.67;26.03;;;4.30;99.90;;;;;;5012602;28;20204;-66
2020/12/05 00:30:51;;;;;;;44.30;25.60;;;4.30;99.90;;;;;;5012840;28;20176;-65
2020/12/05 00:33:16;;;;;;;43.33;25.83;;;4.30;99.90;;;;;;5012798;28;20251;-68
2020/12/05 00:35:42;;;;;;;41.97;25.77;;;4.20;99.90;;;;;;5012732;28;20264;-67
2020/12/05 00:38:07;;;;;;;46.57;27.23;;;4.20;99.90;;;;;;5012860;28;20243;-65
2020/12/05 00:40:33;;;;;;;43.60;25.77;;;4.10;99.90;;;;;;5012495;28;20556;-66
2020/12/05 00:42:59;;;;;;;40.67;25.43;;;4.00;99.90;;;;;;5011725;28;20179;-64
2020/12/05 00:45:24;;;;;;;40.83;25.40;;;4.00;99.90;;;;;;5012421;28;20176;-66
2020/12/05 00:47:50;;;;;;;41.93;25.77;;;4.00;99.90;;;;;;5012578;28;20176;-65
2020/12/05 00:50:15;;;;;;;46.00;26.17;;;3.90;99.90;;;;;;5012658;28;20177;-65
2020/12/05 00:52:41;;;;;;;42.53;26.03;;;4.00;99.90;;;;;;5012410;28;20259;-67
2020/12/05 00:55:07;;;;;;;43.20;25.97;;;4.00;99.90;;;;;;5012622;28;20174;-67
2020/12/05 00:57:33;;;;;;;48.00;27.00;;;4.00;99.90;;;;;;5014644;28;20301;-65
2020/12/05 00:59:58;;;;;;;42.57;26.23;;;4.00;99.90;;;;;;5012530;28;21667;-66
2020/12/05 01:02:25;;;;;;;44.83;27.47;;;3.90;99.90;;;;;;5012506;28;20242;-66
2020/12/05 01:04:51;;;;;;;40.70;25.90;;;3.90;99.90;;;;;;5012331;28;20188;-66
2020/12/05 01:07:25;;;;;;;42.00;27.20;;;3.90;99.90;;;;;;5012579;28;20424;-68
2020/12/05 01:09:51;;;;;;;42.13;26.63;;;3.90;99.90;;;;;;5012016;28;20212;-63
2020/12/05 01:12:17;;;;;;;44.90;26.50;;;3.90;99.90;;;;;;5012327;28;20921;-64
2020/12/05 01:14:43;;;;;;;42.57;26.03;;;3.80;99.90;;;;;;5012054;28;20419;-66
2020/12/05 01:17:08;;;;;;;46.23;27.70;;;3.80;99.90;;;;;;5012457;28;20172;-65
2020/12/05 01:19:34;;;;;;;45.03;27.23;;;3.90;99.90;;;;;;5012086;28;20192;-67
2020/12/05 01:22:00;;;;;;;43.23;26.97;;;3.90;99.90;;;;;;5011816;28;20184;-65
2020/12/05 01:24:25;;;;;;;46.80;27.13;;;4.00;99.90;;;;;;5012248;28;20587;-67
2020/12/05 01:26:51;;;;;;;44.20;26.57;;;4.10;99.90;;;;;;5011905;28;20777;-65
2020/12/05 01:29:17;;;;;;;43.60;26.17;;;4.00;99.90;;;;;;5011967;28;20206;-66
2020/12/05 01:31:46;;;;;;;43.70;26.53;;;4.00;99.90;;;;;;5012085;28;21750;-64
2020/12/05 01:34:12;;;;;;;46.80;26.07;;;4.10;99.90;;;;;;5011569;28;20215;-64
2020/12/05 01:36:43;;;;;;;42.23;25.53;;;4.10;99.90;;;;;;5012077;28;20822;-66
2020/12/05 01:39:08;;;;;;;42.37;27.03;;;4.00;99.90;;;;;;5011798;28;20722;-67
2020/12/05 01:41:34;;;;;;;47.30;25.77;;;4.00;99.90;;;;;;5011743;28;20424;-67
2020/12/05 01:44:00;;;;;;;46.77;27.53;;;4.00;99.90;;;;;;5011845;28;20172;-64
2020/12/05 01:46:39;;;;;;;41.40;25.63;;;4.00;99.90;;;;;;5011453;28;20714;-66
2020/12/05 01:49:06;;;;;;;45.97;26.80;;;4.10;99.90;;;;;;5011788;28;20235;-64
2020/12/05 01:51:32;;;;;;;39.83;26.27;;;4.10;99.90;;;;;;5011651;28;20431;-64
2020/12/05 01:53:58;;;;;;;44.10;26.93;;;4.00;99.90;;;;;;5011209;28;20465;-66
2020/12/05 01:56:26;;;;;;;43.90;26.40;;;3.90;99.90;;;;;;5011313;28;20568;-64
2020/12/05 01:58:52;;;;;;;49.20;26.90;;;3.90;99.90;;;;;;5017578;28;20963;-64
2020/12/05 02:01:21;;;;;;;44.30;28.53;;;3.90;99.90;;;;;;5028163;28;20904;-67
2020/12/05 02:03:56;;;;;;;44.30;27.50;;;3.90;99.90;;;;;;5028425;28;20911;-64
2020/12/05 02:06:46;;;;;;;42.10;27.73;;;3.90;99.90;;;;;;5015762;28;20904;-66
2020/12/05 02:09:18;;;;;;;40.00;25.57;;;3.90;99.90;;;;;;5021691;28;20549;-64
2020/12/05 02:11:56;;;;;;;42.63;26.73;;;3.90;99.90;;;;;;5024254;28;20454;-64
2020/12/05 02:14:25;;;;;;;46.87;28.13;;;3.90;99.90;;;;;;5017838;28;20424;-66
2020/12/05 02:16:53;;;;;;;40.63;25.37;;;3.90;99.90;;;;;;5021412;28;20423;-66
2020/12/05 02:19:22;;;;;;;43.90;25.83;;;3.90;99.90;;;;;;5030941;28;20501;-65
2020/12/05 02:21:52;;;;;;;43.90;28.00;;;4.00;99.90;;;;;;5029541;28;20426;-67
2020/12/05 02:24:18;;;;;;;46.90;27.30;;;4.10;99.90;;;;;;5012713;28;20427;-65
2020/12/05 02:26:44;;;;;;;45.27;27.30;;;4.00;99.90;;;;;;5028784;28;20954;-64
2020/12/05 02:29:10;;;;;;;40.43;25.67;;;4.10;99.90;;;;;;5030886;28;20454;-64
2020/12/05 02:31:37;;;;;;;49.37;27.10;;;4.10;99.90;;;;;;5030858;28;20318;-66
2020/12/05 02:34:03;;;;;;;47.37;26.67;;;4.00;99.90;;;;;;5030625;28;20407;-65
2020/12/05 02:36:34;;;;;;;41.27;25.63;;;4.00;99.90;;;;;;5025734;28;20900;-66
2020/12/05 02:39:06;;;;;;;41.90;25.07;;;4.10;99.90;;;;;;5022942;28;20422;-67
2020/12/05 02:41:36;;;;;;;43.03;25.83;;;4.00;99.90;;;;;;5025816;28;20776;-63
2020/12/05 02:44:02;;;;;;;46.07;25.83;;;4.00;99.90;;;;;;5005206;28;20430;-66
2020/12/05 02:46:28;;;;;;;42.53;25.27;;;4.00;99.90;;;;;;5023333;28;20414;-65
2020/12/05 02:48:54;;;;;;;43.40;26.23;;;4.00;99.90;;;;;;5028476;28;20214;-66
2020/12/05 02:51:20;;;;;;;41.47;24.67;;;4.00;99.90;;;;;;5025703;28;20418;-66
2020/12/05 02:53:45;;;;;;;40.97;24.60;;;4.10;99.90;;;;;;5025101;28;20665;-66
2020/12/05 02:56:18;;;;;;;42.27;22.57;;;4.10;99.90;;;;;;5025707;28;20541;-65
2020/12/05 02:58:47;;;;;;;36.93;22.13;;;4.10;99.90;;;;;;5020023;28;20222;-66
2020/12/05 03:01:13;;;;;;;41.73;24.60;;;4.10;99.90;;;;;;5008874;28;20935;-65
2020/12/05 03:03:39;;;;;;;43.83;24.67;;;4.10;99.90;;;;;;4992579;28;20443;-66
2020/12/05 03:06:05;;;;;;;40.23;24.93;;;4.10;99.90;;;;;;4993665;28;20267;-64
2020/12/05 03:08:31;;;;;;;42.70;25.60;;;4.10;99.90;;;;;;5007122;28;20555;-67
2020/12/05 03:10:57;;;;;;;44.30;26.10;;;4.10;99.90;;;;;;5004557;28;20588;-64
2020/12/05 03:13:22;;;;;;;45.83;24.20;;;4.10;99.90;;;;;;4997435;28;20264;-67
2020/12/05 03:15:48;;;;;;;39.00;22.97;;;4.10;99.90;;;;;;4995262;28;20658;-65
2020/12/05 03:18:13;;;;;;;41.90;24.03;;;4.20;99.90;;;;;;4996342;28;20181;-65
2020/12/05 03:20:39;;;;;;;41.30;23.57;;;4.10;99.90;;;;;;5013161;28;20509;-66
2020/12/05 03:23:05;;;;;;;29.50;15.40;;;4.10;99.90;;;;;;5008128;28;20203;-66
2020/12/05 03:25:30;;;;;;;27.20;14.80;;;4.20;99.90;;;;;;5009983;28;20183;-67
2020/12/05 03:27:56;;;;;;;41.47;21.13;;;4.20;99.90;;;;;;5007960;28;20208;-65
2020/12/05 03:30:21;;;;;;;38.53;22.97;;;4.20;99.90;;;;;;5006919;28;20196;-67
2020/12/05 03:32:48;;;;;;;37.60;21.20;;;4.20;99.90;;;;;;5013190;28;20627;-68
2020/12/05 03:35:14;;;;;;;34.40;19.60;;;4.20;99.90;;;;;;4996828;28;20537;-61
2020/12/05 03:37:39;;;;;;;31.77;18.73;;;4.30;99.90;;;;;;5002462;28;20503;-65
2020/12/05 03:40:06;;;;;;;29.67;18.93;;;4.30;99.90;;;;;;5008272;28;20508;-65
2020/12/05 03:42:32;;;;;;;31.63;18.60;;;4.30;99.90;;;;;;5001297;28;20184;-66
2020/12/05 03:44:57;;;;;;;30.63;17.33;;;4.30;99.90;;;;;;5001071;28;20424;-66
2020/12/05 03:47:23;;;;;;;31.67;18.97;;;4.30;99.90;;;;;;4994393;28;20177;-66
2020/12/05 03:49:49;;;;;;;32.20;18.70;;;4.30;99.90;;;;;;5013543;28;20358;-65
2020/12/05 03:52:15;;;;;;;31.80;19.70;;;4.40;99.90;;;;;;5013891;28;20180;-64
2020/12/05 03:54:41;;;;;;;33.63;19.27;;;4.30;99.90;;;;;;5005275;28;20184;-66
2020/12/05 03:57:07;;;;;;;29.90;17.23;;;4.40;99.90;;;;;;5000280;28;20427;-64
2020/12/05 03:59:33;;;;;;;33.67;18.23;;;4.40;99.90;;;;;;5012658;28;20502;-64
2020/12/05 04:01:58;;;;;;;35.53;20.27;;;4.30;99.90;;;;;;5013297;28;20549;-66
2020/12/05 04:04:24;;;;;;;32.33;19.63;;;4.40;99.90;;;;;;4995989;28;20176;-66
2020/12/05 04:06:49;;;;;;;31.53;18.60;;;4.40;99.90;;;;;;5013558;28;20191;-64
2020/12/05 04:09:15;;;;;;;33.93;19.50;;;4.40;99.90;;;;;;5002194;28;20205;-65
2020/12/05 04:11:40;;;;;;;27.57;17.33;;;4.40;99.90;;;;;;4993809;28;20181;-65
2020/12/05 04:14:08;;;;;;;26.73;17.30;;;4.40;99.90;;;;;;5000714;28;20558;-67
2020/12/05 04:16:34;;;;;;;23.43;14.23;;;4.30;99.90;;;;;;5002690;28;20228;-66
2020/12/05 04:18:59;;;;;;;27.30;16.73;;;4.40;99.90;;;;;;4996315;28;20747;-65
2020/12/05 04:21:25;;;;;;;28.47;16.87;;;4.40;99.90;;;;;;5010035;28;20428;-67
2020/12/05 04:23:53;;;;;;;23.83;12.83;;;4.40;99.90;;;;;;4993599;28;20208;-65
2020/12/05 04:26:19;;;;;;;26.13;15.30;;;4.40;99.90;;;;;;5006258;28;20486;-64
2020/12/05 04:28:45;;;;;;;25.93;14.73;;;4.40;99.90;;;;;;4998730;28;20462;-67
2020/12/05 04:31:10;;;;;;;25.40;14.87;;;4.50;99.90;;;;;;5001739;28;20951;-66
2020/12/05 04:33:36;;;;;;;25.90;15.27;;;4.40;99.90;;;;;;4994993;28;20181;-65
2020/12/05 04:36:03;;;;;;;27.70;16.63;;;4.40;99.90;;;;;;5003069;28;20234;-64
2020/12/05 04:38:29;;;;;;;25.07;16.13;;;4.50;99.90;;;;;;5003925;28;20201;-64
2020/12/05 04:40:57;;;;;;;27.10;18.13;;;4.50;99.90;;;;;;4997498;28;20447;-64
2020/12/05 04:43:23;;;;;;;24.23;15.10;;;4.50;99.90;;;;;;5005207;28;20635;-66
2020/12/05 04:45:50;;;;;;;26.43;17.00;;;4.50;99.90;;;;;;5007702;28;20431;-65
2020/12/05 04:48:16;;;;;;;23.00;15.27;;;4.40;99.90;;;;;;4996515;28;20474;-65
2020/12/05 04:50:45;;;;;;;28.60;17.20;;;4.50;99.90;;;;;;5008546;28;20443;-67
2020/12/05 04:53:15;;;;;;;23.60;16.60;;;4.50;99.90;;;;;;4995260;28;20426;-64
2020/12/05 04:55:42;;;;;;;22.23;14.47;;;4.50;99.90;;;;;;5011179;28;20633;-64
2020/12/05 04:58:22;;;;;;;20.13;13.53;;;4.50;99.90;;;;;;5015517;28;20689;-65
2020/12/05 05:00:58;;;;;;;19.17;13.37;;;4.50;99.90;;;;;;5032347;28;20888;-66
2020/12/05 05:03:25;;;;;;;21.13;14.10;;;4.50;99.90;;;;;;5022258;28;20944;-64
2020/12/05 05:05:53;;;;;;;21.27;15.27;;;4.50;99.90;;;;;;5021713;28;20416;-66
2020/12/05 05:08:18;;;;;;;20.70;14.57;;;4.60;99.90;;;;;;5018046;28;20581;-66
2020/12/05 05:10:44;;;;;;;18.80;13.93;;;4.60;99.90;;;;;;5019098;28;20887;-67
2020/12/05 05:13:21;;;;;;;20.87;14.23;;;4.60;99.90;;;;;;5020564;28;20187;-66
2020/12/05 05:15:47;;;;;;;19.37;13.87;;;4.50;99.90;;;;;;5019986;28;20172;-64
2020/12/05 05:18:13;;;;;;;21.10;14.47;;;4.60;99.90;;;;;;5031756;28;21882;-64
2020/12/05 05:20:43;;;;;;;20.50;14.43;;;4.60;99.90;;;;;;5015002;28;20213;-64
2020/12/05 05:23:13;;;;;;;19.47;13.03;;;4.60;99.90;;;;;;5016163;28;20769;-66
2020/12/05 05:25:58;;;;;;;18.27;13.23;;;4.60;99.90;;;;;;5028409;28;20431;-64
2020/12/05 05:28:32;;;;;;;18.60;12.87;;;4.60;99.90;;;;;;5031013;28;20528;-66
2020/12/05 05:33:49;;;;;;;18.87;13.93;;;4.60;99.90;;;;;;5022497;28;20418;-64
2020/12/05 05:36:22;;;;;;;19.83;14.13;;;4.60;99.90;;;;;;5027646;28;20982;-65
2020/12/05 05:39:10;;;;;;;20.80;15.73;;;4.50;99.90;;;;;;5027018;28;20407;-66
2020/12/05 05:41:38;;;;;;;20.03;15.00;;;4.50;99.90;;;;;;5016754;28;20418;-66
2020/12/05 05:44:12;;;;;;;23.20;15.77;;;4.50;99.90;;;;;;5014928;28;20882;-65
2020/12/05 05:46:42;;;;;;;21.50;16.30;;;4.50;99.90;;;;;;5015788;28;20502;-66
2020/12/05 05:49:10;;;;;;;21.07;16.10;;;4.60;99.90;;;;;;5025376;28;20447;-66
2020/12/05 05:51:39;;;;;;;21.83;14.57;;;4.60;99.90;;;;;;5030175;28;20503;-64
2020/12/05 05:54:16;;;;;;;19.37;15.03;;;4.60;99.90;;;;;;5014411;28;20420;-67
2020/12/05 05:57:14;;;;;;;19.27;15.20;;;4.60;99.90;;;;;;5026444;28;20432;-65
2020/12/05 05:59:42;;;;;;;21.23;17.23;;;4.60;99.90;;;;;;5015697;28;20475;-65
2020/12/05 06:02:19;;;;;;;20.27;15.07;;;4.60;99.90;;;;;;5011279;28;20787;-64
2020/12/05 06:04:46;;;;;;;19.73;15.97;;;4.50;99.90;;;;;;5011318;28;20419;-65
2020/12/05 06:07:16;;;;;;;17.97;14.63;;;4.60;99.90;;;;;;5011139;28;20419;-66
2020/12/05 06:09:53;;;;;;;17.83;12.97;;;4.60;99.90;;;;;;5011342;28;20471;-67
2020/12/05 06:12:21;;;;;;;16.40;13.83;;;4.50;99.90;;;;;;4990437;28;20870;-69
2020/12/05 06:14:48;;;;;;;14.13;12.73;;;4.60;99.90;;;;;;4991750;28;20424;-68
2020/12/05 06:17:20;;;;;;;11.80;10.57;;;4.50;99.90;;;;;;4994456;28;20920;-67
2020/12/05 06:19:47;;;;;;;14.40;10.77;;;4.60;99.90;;;;;;4994091;28;20866;-63
2020/12/05 06:22:41;;;;;;;11.63;10.17;;;4.50;99.90;;;;;;5004131;28;20804;-68
2020/12/05 06:25:16;;;;;;;12.27;10.63;;;4.50;99.90;;;;;;5004051;28;20427;-66
2020/12/05 06:28:03;;;;;;;10.57;9.37;;;4.50;99.90;;;;;;5011139;28;20820;-64
2020/12/05 06:30:29;;;;;;;13.73;10.53;;;4.50;99.90;;;;;;5010759;28;20947;-64
2020/12/05 06:32:58;;;;;;;12.53;10.57;;;4.50;99.90;;;;;;4996861;28;20443;-66
2020/12/05 06:35:23;;;;;;;12.70;10.67;;;4.50;99.90;;;;;;4994043;28;20169;-65
2020/12/05 06:37:50;;;;;;;10.63;8.83;;;4.40;99.90;;;;;;4991411;28;20786;-67
2020/12/05 06:40:16;;;;;;;11.60;9.73;;;4.50;99.90;;;;;;4994319;28;20619;-67
2020/12/05 06:42:46;;;;;;;11.73;9.10;;;4.40;99.90;;;;;;4997493;28;21455;-65
2020/12/05 06:45:27;;;;;;;11.40;9.00;;;4.50;99.90;;;;;;5008974;28;20549;-65
2020/12/05 06:48:07;;;;;;;11.33;10.00;;;4.50;99.90;;;;;;4995222;28;20926;-67
2020/12/05 06:50:33;;;;;;;10.00;8.30;;;4.50;99.90;;;;;;4995161;28;21661;-67
2020/12/05 06:52:59;;;;;;;10.60;9.47;;;4.50;99.90;;;;;;5003644;28;20442;-63
2020/12/05 06:55:30;;;;;;;11.53;9.13;;;4.50;99.90;;;;;;4999515;28;20519;-67
2020/12/05 06:58:06;;;;;;;12.50;9.03;;;4.50;99.90;;;;;;5010004;28;20180;-65
2020/12/05 07:00:34;;;;;;;9.60;8.30;;;4.50;99.90;;;;;;5013323;28;20418;-65
2020/12/05 07:03:09;;;;;;;10.70;8.53;;;4.50;99.90;;;;;;5001517;28;20420;-64
2020/12/05 07:05:48;;;;;;;11.87;8.70;;;4.40;99.90;;;;;;4994982;28;21166;-65
2020/12/05 07:08:28;;;;;;;10.80;9.67;;;4.40;99.90;;;;;;5000432;28;20475;-64
2020/12/05 07:10:57;;;;;;;10.97;9.83;;;4.40;99.90;;;;;;5001310;28;20422;-64
2020/12/05 07:13:37;;;;;;;9.57;8.57;;;4.40;99.90;;;;;;5002044;28;20821;-63
2020/12/05 07:16:13;;;;;;;9.87;8.87;;;4.40;99.90;;;;;;5013890;28;20423;-66
2020/12/05 07:18:40;;;;;;;11.37;9.13;;;4.50;99.90;;;;;;5013074;28;20967;-63
2020/12/05 07:21:07;;;;;;;9.47;8.40;;;4.50;99.90;;;;;;4997905;28;20921;-63
2020/12/05 07:23:32;;;;;;;9.67;8.07;;;4.50;99.90;;;;;;5007113;28;20572;-64
2020/12/05 07:26:02;;;;;;;10.63;8.97;;;4.50;99.90;;;;;;4994627;28;20516;-63
2020/12/05 07:28:28;;;;;;;10.93;9.73;;;4.50;99.90;;;;;;4994640;28;20205;-66
2020/12/05 07:30:54;;;;;;;10.37;9.30;;;4.50;99.90;;;;;;5008760;28;20422;-65
2020/12/05 07:33:21;;;;;;;11.33;9.53;;;4.50;99.90;;;;;;5001900;28;20411;-66
2020/12/05 07:35:59;;;;;;;10.77;8.80;;;4.50;99.90;;;;;;5006208;28;20173;-63
2020/12/05 07:38:27;;;;;;;8.57;7.77;;;4.50;99.90;;;;;;4994528;28;20572;-65
2020/12/05 07:40:52;;;;;;;10.23;7.63;;;4.50;99.90;;;;;;5002476;28;20474;-65
2020/12/05 07:43:19;;;;;;;8.57;7.67;;;4.40;99.90;;;;;;4994381;28;20421;-65
2020/12/05 07:45:50;;;;;;;12.03;8.90;;;4.40;99.90;;;;;;4994555;28;21253;-64
2020/12/05 07:48:17;;;;;;;9.10;8.20;;;4.40;99.90;;;;;;5000486;28;20916;-64
2020/12/05 07:50:44;;;;;;;9.27;7.97;;;4.40;99.90;;;;;;5013370;28;20411;-65
2020/12/05 07:53:24;;;;;;;8.50;7.57;;;4.50;99.90;;;;;;5013857;28;20912;-65
2020/12/05 07:55:50;;;;;;;10.47;8.10;;;4.40;99.90;;;;;;5004992;28;20412;-63
2020/12/05 07:58:16;;;;;;;10.03;8.17;;;4.50;99.90;;;;;;5015759;28;20436;-65
2020/12/05 08:00:42;;;;;;;8.20;7.33;;;4.40;99.90;;;;;;5033277;28;20314;-63
2020/12/05 08:03:41;;;;;;;8.83;7.93;;;4.50;99.90;;;;;;5033555;28;20168;-65
2020/12/05 08:06:15;;;;;;;9.33;8.40;;;4.50;99.90;;;;;;5012698;28;20404;-63
2020/12/05 08:08:47;;;;;;;8.47;7.57;;;4.50;99.90;;;;;;5013973;28;20533;-65
2020/12/05 08:11:13;;;;;;;9.43;8.43;;;4.50;99.90;;;;;;5019579;28;20427;-62
2020/12/05 08:13:38;;;;;;;8.23;7.37;;;4.50;99.90;;;;;;5033513;28;20497;-65
2020/12/05 08:16:08;;;;;;;8.67;7.77;;;4.50;99.90;;;;;;5029293;28;20179;-64
2020/12/05 08:18:36;;;;;;;8.47;7.53;;;4.50;99.90;;;;;;5019499;28;20172;-63
2020/12/05 08:21:04;;;;;;;8.37;7.50;;;4.50;99.90;;;;;;5026306;28;20422;-65
2020/12/05 08:23:32;;;;;;;6.67;6.00;;;4.50;99.90;;;;;;5024655;28;20474;-64
2020/12/05 08:26:01;;;;;;;7.20;6.13;;;4.40;99.90;;;;;;5022181;28;20430;-63
2020/12/05 08:28:29;;;;;;;6.63;5.83;;;4.40;99.90;;;;;;5033700;28;20787;-63
2020/12/05 08:30:56;;;;;;;7.77;6.23;;;4.40;99.90;;;;;;5025982;28;20423;-65
2020/12/05 08:33:21;;;;;;;7.73;5.90;;;4.40;99.90;;;;;;5013631;28;20419;-64
2020/12/05 08:35:47;;;;;;;6.43;5.73;;;4.30;99.90;;;;;;5023188;28;20412;-66
2020/12/05 08:38:21;;;;;;;6.73;6.03;;;4.30;99.90;;;;;;5013666;28;20173;-65
2020/12/05 08:40:57;;;;;;;8.57;6.87;;;4.30;99.90;;;;;;5028591;28;21716;-66
2020/12/05 08:43:25;;;;;;;9.80;7.17;;;4.30;99.90;;;;;;5030135;28;20739;-63
2020/12/05 08:45:50;;;;;;;7.60;5.90;;;4.30;99.90;;;;;;5026991;28;20811;-64
2020/12/05 08:48:17;;;;;;;7.77;6.73;;;4.30;99.90;;;;;;5033147;28;20429;-63
2020/12/05 08:50:44;;;;;;;7.47;6.43;;;4.20;99.90;;;;;;5033061;28;20241;-65
2020/12/05 08:53:11;;;;;;;7.17;5.63;;;4.30;99.90;;;;;;5014941;28;20427;-65
2020/12/05 08:55:37;;;;;;;6.50;5.90;;;4.30;99.90;;;;;;5013335;28;20502;-65
2020/12/05 08:58:06;;;;;;;6.17;5.50;;;4.20;99.90;;;;;;5013310;28;20819;-64
2020/12/05 09:00:34;;;;;;;8.00;6.40;;;4.30;99.90;;;;;;5013170;28;20207;-64
2020/12/05 09:03:01;;;;;;;7.87;7.00;;;4.20;99.90;;;;;;4994496;28;20432;-63
2020/12/05 09:05:26;;;;;;;7.37;6.57;;;4.20;99.90;;;;;;5015637;28;20546;-64
2020/12/05 09:07:57;;;;;;;7.67;6.87;;;4.30;99.90;;;;;;5015280;28;20782;-64
2020/12/05 09:10:23;;;;;;;8.70;7.80;;;4.30;99.90;;;;;;5031661;28;20247;-63
2020/12/05 09:12:50;;;;;;;9.00;7.50;;;4.30;99.90;;;;;;5032100;28;20513;-63
2020/12/05 09:15:16;;;;;;;10.40;8.80;;;4.30;99.90;;;;;;5032278;28;20415;-63
2020/12/05 09:17:42;;;;;;;8.97;7.90;;;4.30;99.90;;;;;;5032268;28;20414;-64
2020/12/05 09:20:19;;;;;;;9.33;8.20;;;4.30;99.90;;;;;;5031845;28;20790;-63
2020/12/05 09:22:46;;;;;;;10.13;7.97;;;4.30;99.90;;;;;;5018455;28;20180;-64
2020/12/05 09:25:11;;;;;;;8.93;7.80;;;4.30;99.90;;;;;;5012499;28;20813;-63
2020/12/05 09:27:40;;;;;;;8.53;7.63;;;4.40;99.90;;;;;;5012463;28;20419;-64
2020/12/05 09:30:13;;;;;;;8.37;7.47;;;4.40;99.90;;;;;;5010392;28;20647;-64
2020/12/05 09:32:43;;;;;;;8.03;7.23;;;4.60;99.90;;;;;;5012168;28;20411;-64
2020/12/05 09:35:11;;;;;;;8.03;6.80;;;4.70;99.90;;;;;;5012552;28;20876;-64
2020/12/05 09:37:37;;;;;;;7.37;5.23;;;4.80;99.90;;;;;;5012174;28;20407;-64
2020/12/05 09:40:08;;;;;;;5.50;5.00;;;4.70;99.90;;;;;;5012476;28;20435;-65
2020/12/05 09:42:34;;;;;;;5.27;4.10;;;4.70;99.90;;;;;;5012434;28;20777;-63
2020/12/05 09:45:00;;;;;;;5.50;5.00;;;4.70;99.90;;;;;;5017053;28;20428;-65
2020/12/05 09:47:25;;;;;;;5.57;4.80;;;4.70;99.90;;;;;;5017124;28;20172;-65
2020/12/05 09:49:51;;;;;;;5.43;4.93;;;4.80;99.90;;;;;;5015694;28;20205;-65
2020/12/05 09:52:17;;;;;;;4.50;4.10;;;4.80;99.90;;;;;;5031834;28;20183;-64
2020/12/05 09:54:49;;;;;;;4.30;3.47;;;4.80;99.90;;;;;;5027000;28;20212;-64
2020/12/05 09:57:15;;;;;;;5.87;3.97;;;4.90;99.90;;;;;;5011877;28;20801;-63
2020/12/05 09:59:51;;;;;;;4.50;4.10;;;4.90;99.90;;;;;;5013063;28;20310;-66
2020/12/05 10:02:24;;;;;;;5.10;3.93;;;5.00;99.90;;;;;;5011763;28;20942;-64
2020/12/05 10:04:49;;;;;;;5.33;4.20;;;5.00;99.90;;;;;;5011757;28;20419;-63
2020/12/05 10:07:15;;;;;;;6.10;4.70;;;5.00;99.90;;;;;;5011727;28;20404;-63
2020/12/05 10:09:40;;;;;;;6.27;5.17;;;5.10;99.90;;;;;;5011573;28;20275;-64
2020/12/05 10:12:06;;;;;;;6.43;5.73;;;5.20;99.90;;;;;;5008587;28;20173;-66
2020/12/05 10:14:32;;;;;;;6.73;6.13;;;5.20;99.90;;;;;;5009392;28;20635;-64
2020/12/05 10:16:58;;;;;;;6.53;5.93;;;5.20;99.90;;;;;;5011453;28;20184;-65
2020/12/05 10:19:23;;;;;;;6.27;5.50;;;5.20;99.90;;;;;;5011373;28;20177;-63
2020/12/05 10:21:50;;;;;;;5.80;5.07;;;5.30;99.90;;;;;;5011475;28;20808;-64
2020/12/05 10:24:16;;;;;;;7.07;5.67;;;5.40;99.90;;;;;;5011097;28;20199;-63
2020/12/05 10:26:56;;;;;;;6.30;5.70;;;5.30;99.90;;;;;;5010827;28;20423;-64
2020/12/05 10:29:23;;;;;;;8.57;6.77;;;5.40;99.90;;;;;;5010886;28;20451;-65
2020/12/05 10:31:51;;;;;;;8.77;6.87;;;5.40;99.90;;;;;;5010956;28;20924;-63
2020/12/05 10:34:17;;;;;;;7.53;5.80;;;5.50;99.90;;;;;;5010940;28;20506;-65
2020/12/05 10:36:44;;;;;;;5.57;4.87;;;5.60;99.90;;;;;;5010907;28;20459;-64
2020/12/05 10:39:10;;;;;;;4.90;4.50;;;5.60;99.90;;;;;;5010961;28;20426;-64
2020/12/05 10:41:36;;;;;;;7.13;5.00;;;5.70;99.90;;;;;;5010971;28;20416;-65
2020/12/05 10:44:06;;;;;;;5.50;5.00;;;5.70;99.90;;;;;;5011049;28;20988;-64
2020/12/05 10:46:32;;;;;;;6.40;4.83;;;5.70;99.90;;;;;;4993044;28;20463;-66
2020/12/05 10:48:58;;;;;;;6.50;4.90;;;5.70;99.90;;;;;;5010651;28;20543;-65
2020/12/05 10:51:24;;;;;;;6.10;5.47;;;5.70;99.90;;;;;;5011065;28;20204;-64
2020/12/05 10:53:49;;;;;;;5.97;5.37;;;5.80;99.90;;;;;;5010773;28;20255;-65
2020/12/05 10:56:15;;;;;;;7.20;5.83;;;5.80;99.90;;;;;;5010911;28;20187;-66
2020/12/05 10:58:41;;;;;;;6.60;5.47;;;5.90;99.90;;;;;;5012134;28;20214;-67
2020/12/05 11:01:06;;;;;;;5.63;4.93;;;5.90;99.90;;;;;;5010875;28;20180;-64
2020/12/05 11:03:32;;;;;;;6.47;5.43;;;5.90;99.90;;;;;;5010780;28;20646;-68
2020/12/05 11:05:58;;;;;;;6.10;5.13;;;5.90;99.90;;;;;;5010866;28;20176;-64
2020/12/05 11:08:23;;;;;;;5.17;4.67;;;5.80;99.90;;;;;;5010575;28;20184;-66
2020/12/05 11:10:49;;;;;;;5.60;5.07;;;6.00;99.90;;;;;;5010840;28;20185;-66
2020/12/05 11:13:15;;;;;;;6.40;5.67;;;5.90;99.90;;;;;;5010583;28;20226;-65
2020/12/05 11:15:40;;;;;;;6.43;5.80;;;6.00;99.90;;;;;;5010793;28;20176;-65
2020/12/05 11:18:07;;;;;;;6.90;6.20;;;6.00;99.90;;;;;;5010527;28;20644;-66
2020/12/05 11:20:32;;;;;;;6.17;5.33;;;6.00;99.90;;;;;;5010974;28;20346;-67
2020/12/05 11:22:58;;;;;;;6.33;5.50;;;6.00;99.90;;;;;;5010519;28;20518;-66
2020/12/05 11:25:23;;;;;;;6.20;5.37;;;6.00;99.90;;;;;;5010558;28;20188;-64
2020/12/05 11:27:50;;;;;;;6.03;5.53;;;6.10;99.90;;;;;;5014298;28;20188;-67
2020/12/05 11:30:16;;;;;;;5.17;4.67;;;6.20;99.90;;;;;;5014188;28;20204;-65
2020/12/05 11:32:41;;;;;;;5.13;4.63;;;6.10;99.90;;;;;;5014437;28;20430;-66
2020/12/05 11:35:07;;;;;;;6.17;5.00;;;6.10;99.90;;;;;;5014057;28;20187;-64
2020/12/05 11:37:33;;;;;;;5.37;4.87;;;6.20;99.90;;;;;;5014076;28;20180;-65
2020/12/05 11:39:59;;;;;;;5.20;4.70;;;6.20;99.90;;;;;;5014009;28;20446;-65
2020/12/05 11:42:32;;;;;;;5.87;4.83;;;6.20;99.90;;;;;;4996258;28;20235;-65
2020/12/05 11:44:59;;;;;;;5.07;4.37;;;6.20;99.90;;;;;;5014134;28;20184;-67
2020/12/05 11:47:25;;;;;;;5.33;4.83;;;6.30;99.90;;;;;;5014042;28;20517;-65
2020/12/05 11:49:51;;;;;;;5.97;5.10;;;6.30;99.90;;;;;;5013631;28;20455;-64
2020/12/05 11:52:16;;;;;;;6.40;5.30;;;6.40;99.90;;;;;;5013842;28;20434;-66
2020/12/05 11:54:42;;;;;;;6.50;5.43;;;6.40;99.90;;;;;;5014092;28;20191;-67
2020/12/05 11:57:07;;;;;;;6.50;5.47;;;6.40;99.90;;;;;;5013754;28;20206;-65
2020/12/05 11:59:33;;;;;;;6.17;4.97;;;6.40;99.90;;;;;;5015493;28;20558;-67
2020/12/05 12:01:59;;;;;;;6.27;5.67;;;6.40;99.90;;;;;;5013639;28;20192;-65
2020/12/05 12:04:24;;;;;;;6.43;5.80;;;6.40;99.90;;;;;;5013785;28;20191;-65
2020/12/05 12:06:50;;;;;;;7.10;5.60;;;6.30;99.90;;;;;;5013430;28;20250;-65
2020/12/05 12:09:16;;;;;;;5.60;5.10;;;6.30;99.90;;;;;;5013660;28;20215;-67
2020/12/05 12:11:41;;;;;;;6.47;5.53;;;6.20;99.90;;;;;;5013779;28;20659;-68
2020/12/05 12:14:07;;;;;;;7.07;5.80;;;6.20;99.90;;;;;;5013658;28;20537;-66
2020/12/05 12:16:32;;;;;;;6.77;5.57;;;6.20;99.90;;;;;;5013644;28;20180;-68
2020/12/05 12:18:58;;;;;;;7.17;6.10;;;6.10;99.90;;;;;;5013256;28;20180;-66
2020/12/05 12:21:24;;;;;;;7.07;5.77;;;6.10;99.90;;;;;;5013271;28;20215;-66
2020/12/05 12:23:50;;;;;;;7.23;5.30;;;6.10;99.90;;;;;;5013477;28;20219;-66
2020/12/05 12:26:16;;;;;;;5.63;5.13;;;6.20;99.90;;;;;;5013272;28;20454;-64
2020/12/05 12:28:41;;;;;;;5.87;5.27;;;6.20;99.90;;;;;;5013272;28;20494;-67
2020/12/05 12:31:07;;;;;;;7.50;6.00;;;6.20;99.90;;;;;;5012867;28;20180;-64
2020/12/05 12:33:33;;;;;;;6.33;5.73;;;6.20;99.90;;;;;;5013135;28;20235;-65
2020/12/05 12:35:58;;;;;;;8.33;7.47;;;6.20;99.90;;;;;;5012947;28;20176;-66
2020/12/05 12:38:24;;;;;;;9.07;8.17;;;6.10;99.90;;;;;;5012538;28;20184;-66
2020/12/05 12:40:49;;;;;;;7.13;6.43;;;6.20;99.90;;;;;;5013203;28;20187;-63
2020/12/05 12:43:15;;;;;;;7.73;6.93;;;6.20;99.90;;;;;;4995195;28;20183;-67
2020/12/05 12:45:42;;;;;;;8.90;8.00;;;6.20;99.90;;;;;;5012937;28;20227;-65
2020/12/05 12:50:34;;;;;;;8.20;7.23;;;6.10;99.90;;;;;;5012534;28;20519;-65
2020/12/05 12:53:00;;;;;;;10.20;7.70;;;6.20;99.90;;;;;;5013100;28;20647;-65
2020/12/05 12:55:25;;;;;;;9.20;7.87;;;6.30;99.90;;;;;;5012453;28;20450;-64